Main page
METAR-TAF:

Airports :

Dortmund, Germany

Dortmund Airport

latitude: 51-31N, longitude: 007-37E, elevation: 127 m

Current weather observation

The report was made 2 hours and 27 minutes ago, at 19:50 UTC
Wind 4 kt from the Northwest
Temperature 19°C
Humidity 68%
Pressure 1015 hPa
Visibility 10 km or more
no clouds below 1500 m and no cumulonimbus

METAR: EDLW 281950Z 31004KT CAVOK 19/13 Q1015

Time: 00:17 (22:17 UTC)

Forecast

The report was made 5 hours and 17 minutes ago, at 17:00 UTC
Forecast valid from 28 at 18 UTC to 29 at 18 UTC
Wind 8 kt from the West/Southwest
Visibility 10 km or more
Few clouds at a height of 3000 ft
Becoming
from 29 at 12 UTC to 29 at 14 UTC
Wind 6 kt from the Northwest

TAF: EDLW 281700Z 2818/2918 25008KT 9999 FEW030 BECMG 2912/2914 31006KT

METAR-TAF

Weather observations and forecasts of more than 4000 airports (METAR and TAF reports).

The available stations are represented by yellow and red dots on the map.

Hover mouse over dot to see the name of the station.

Then click to see weather observations and forecasts.

To change the map : click on the green buttons with a black cross to zoom in, on the green button with a dash to zoom out, or on the green arrows for adjacent maps.


METAR-TAF: